首页
METAR-TAF:

METAR-TAF

机场 :

Leconfield, 英格兰

纬度: 53-52-37N, 经度: 0-26-15W, 海拔: 7米

当前天气观测

该预报发布于33分钟前的15:50 UTC
风速9节,风向西
温度 11°C
湿度 76%
气压 992 hPa
能见度10公里或以上

METAR: EGXV 051550Z AUTO 26009KT 9999 FEW031/// BKN080/// 11/07 Q0992 RERA

时间: 17:23 (16:23 UTC)


TAF: 丢失

超过4000个机场的气象观测和天气预报(METAR&TAF报告)。

可查询的气象台以黄色和红色小点在地图上表示。

将鼠标移到小点上方,可查看气象台名称。

然后点击查看天气观测和预报。

如需切换地图:点击带黑十字的绿色按钮放大地图;点击带横线的绿色按钮缩小地图;或者点击绿色箭头查看邻近地区的地图。


METAR-TAF: